sensor_id;sensor_type;location;lat;lon;timestamp;temperature;humidity
75380;HTU21D;65641;44.714;37.756;2024-02-14T00:00:52;12.79;87.13
75380;HTU21D;65641;44.714;37.756;2024-02-14T00:01:56;12.79;87.19
75380;HTU21D;65641;44.714;37.756;2024-02-14T00:02:59;12.79;87.08
75380;HTU21D;65641;44.714;37.756;2024-02-14T00:04:04;12.78;87.08
75380;HTU21D;65641;44.714;37.756;2024-02-14T00:05:08;12.78;87.11
75380;HTU21D;65641;44.714;37.756;2024-02-14T00:06:13;12.77;87.18
75380;HTU21D;65641;44.714;37.756;2024-02-14T00:07:17;12.77;86.99
75380;HTU21D;65641;44.714;37.756;2024-02-14T00:08:20;12.76;87.06
75380;HTU21D;65641;44.714;37.756;2024-02-14T00:09:24;12.76;87.09
75380;HTU21D;65641;44.714;37.756;2024-02-14T00:10:27;12.75;87.10
75380;HTU21D;65641;44.714;37.756;2024-02-14T00:11:31;12.77;87.01
75380;HTU21D;65641;44.714;37.756;2024-02-14T00:12:35;12.75;87.08
75380;HTU21D;65641;44.714;37.756;2024-02-14T00:13:39;12.75;87.25
75380;HTU21D;65641;44.714;37.756;2024-02-14T00:14:42;12.75;87.10
75380;HTU21D;65641;44.714;37.756;2024-02-14T00:15:46;12.76;87.00
75380;HTU21D;65641;44.714;37.756;2024-02-14T00:16:49;12.75;87.25
75380;HTU21D;65641;44.714;37.756;2024-02-14T00:17:54;12.76;87.28
75380;HTU21D;65641;44.714;37.756;2024-02-14T00:18:57;12.75;87.12
75380;HTU21D;65641;44.714;37.756;2024-02-14T00:20:02;12.75;87.22
75380;HTU21D;65641;44.714;37.756;2024-02-14T00:21:19;12.76;87.22
75380;HTU21D;65641;44.714;37.756;2024-02-14T00:22:24;12.75;87.20
75380;HTU21D;65641;44.714;37.756;2024-02-14T00:23:27;12.77;87.22
75380;HTU21D;65641;44.714;37.756;2024-02-14T00:24:31;12.77;87.25
75380;HTU21D;65641;44.714;37.756;2024-02-14T00:25:35;12.77;87.06
75380;HTU21D;65641;44.714;37.756;2024-02-14T00:26:39;12.77;87.06
75380;HTU21D;65641;44.714;37.756;2024-02-14T00:27:43;12.79;86.99
75380;HTU21D;65641;44.714;37.756;2024-02-14T00:28:46;12.80;86.87
75380;HTU21D;65641;44.714;37.756;2024-02-14T00:29:50;12.81;86.90
75380;HTU21D;65641;44.714;37.756;2024-02-14T00:30:54;12.81;86.82
75380;HTU21D;65641;44.714;37.756;2024-02-14T00:32:17;12.82;86.83
75380;HTU21D;65641;44.714;37.756;2024-02-14T00:33:29;12.84;86.87
75380;HTU21D;65641;44.714;37.756;2024-02-14T00:34:33;12.85;86.77
75380;HTU21D;65641;44.714;37.756;2024-02-14T00:35:36;12.85;86.85
75380;HTU21D;65641;44.714;37.756;2024-02-14T00:36:40;12.86;86.78
75380;HTU21D;65641;44.714;37.756;2024-02-14T00:37:43;12.86;86.74
75380;HTU21D;65641;44.714;37.756;2024-02-14T00:38:47;12.87;86.61
75380;HTU21D;65641;44.714;37.756;2024-02-14T00:39:50;12.88;86.74
75380;HTU21D;65641;44.714;37.756;2024-02-14T00:40:54;12.88;86.73
75380;HTU21D;65641;44.714;37.756;2024-02-14T00:41:58;12.90;86.73
75380;HTU21D;65641;44.714;37.756;2024-02-14T00:43:02;12.90;86.70
75380;HTU21D;65641;44.714;37.756;2024-02-14T00:44:06;12.90;86.70
75380;HTU21D;65641;44.714;37.756;2024-02-14T00:45:10;12.90;86.64
75380;HTU21D;65641;44.714;37.756;2024-02-14T00:46:17;12.92;86.58
75380;HTU21D;65641;44.714;37.756;2024-02-14T00:47:20;12.93;86.51
75380;HTU21D;65641;44.714;37.756;2024-02-14T00:48:24;12.93;86.61
75380;HTU21D;65641;44.714;37.756;2024-02-14T00:49:28;12.95;86.50
75380;HTU21D;65641;44.714;37.756;2024-02-14T00:50:32;12.95;86.60
75380;HTU21D;65641;44.714;37.756;2024-02-14T00:51:36;12.94;86.49
75380;HTU21D;65641;44.714;37.756;2024-02-14T00:52:43;12.96;86.52
75380;HTU21D;65641;44.714;37.756;2024-02-14T00:53:47;12.96;86.52
75380;HTU21D;65641;44.714;37.756;2024-02-14T00:54:50;12.99;86.33
75380;HTU21D;65641;44.714;37.756;2024-02-14T00:55:53;13.01;86.45
75380;HTU21D;65641;44.714;37.756;2024-02-14T00:56:57;13.01;86.29
75380;HTU21D;65641;44.714;37.756;2024-02-14T00:58:01;13.03;86.48
75380;HTU21D;65641;44.714;37.756;2024-02-14T00:59:05;13.03;86.17
75380;HTU21D;65641;44.714;37.756;2024-02-14T01:00:11;13.04;86.06
75380;HTU21D;65641;44.714;37.756;2024-02-14T01:01:15;13.05;86.34
75380;HTU21D;65641;44.714;37.756;2024-02-14T01:02:18;13.07;86.01
75380;HTU21D;65641;44.714;37.756;2024-02-14T01:03:22;13.06;86.12
75380;HTU21D;65641;44.714;37.756;2024-02-14T01:04:25;13.06;86.12
75380;HTU21D;65641;44.714;37.756;2024-02-14T01:05:29;13.07;86.16
75380;HTU21D;65641;44.714;37.756;2024-02-14T01:06:32;13.08;86.06
75380;HTU21D;65641;44.714;37.756;2024-02-14T01:07:36;13.09;86.14
75380;HTU21D;65641;44.714;37.756;2024-02-14T01:08:40;13.09;86.05
75380;HTU21D;65641;44.714;37.756;2024-02-14T01:09:44;13.10;86.11
75380;HTU21D;65641;44.714;37.756;2024-02-14T01:10:47;13.09;86.16
75380;HTU21D;65641;44.714;37.756;2024-02-14T01:11:53;13.09;86.16
75380;HTU21D;65641;44.714;37.756;2024-02-14T01:12:57;13.09;86.17
75380;HTU21D;65641;44.714;37.756;2024-02-14T01:14:00;13.10;86.15
75380;HTU21D;65641;44.714;37.756;2024-02-14T01:15:05;13.12;85.96
75380;HTU21D;65641;44.714;37.756;2024-02-14T01:16:12;13.11;85.93
75380;HTU21D;65641;44.714;37.756;2024-02-14T01:17:16;13.11;86.07
75380;HTU21D;65641;44.714;37.756;2024-02-14T01:18:19;13.12;85.97
75380;HTU21D;65641;44.714;37.756;2024-02-14T01:19:23;13.12;85.99
75380;HTU21D;65641;44.714;37.756;2024-02-14T01:20:32;13.12;86.05
75380;HTU21D;65641;44.714;37.756;2024-02-14T01:21:35;13.11;86.11
75380;HTU21D;65641;44.714;37.756;2024-02-14T01:22:39;13.10;86.00
75380;HTU21D;65641;44.714;37.756;2024-02-14T01:23:51;13.11;86.23
75380;HTU21D;65641;44.714;37.756;2024-02-14T01:24:55;13.09;86.16
75380;HTU21D;65641;44.714;37.756;2024-02-14T01:25:59;13.08;86.11
75380;HTU21D;65641;44.714;37.756;2024-02-14T01:27:02;13.07;86.22
75380;HTU21D;65641;44.714;37.756;2024-02-14T01:28:07;13.07;86.19
75380;HTU21D;65641;44.714;37.756;2024-02-14T01:29:11;13.05;86.27
75380;HTU21D;65641;44.714;37.756;2024-02-14T01:30:15;13.04;86.15
75380;HTU21D;65641;44.714;37.756;2024-02-14T01:31:20;13.05;86.12
75380;HTU21D;65641;44.714;37.756;2024-02-14T01:32:24;13.05;86.02
75380;HTU21D;65641;44.714;37.756;2024-02-14T01:33:28;13.03;86.07
75380;HTU21D;65641;44.714;37.756;2024-02-14T01:34:34;13.03;86.06
75380;HTU21D;65641;44.714;37.756;2024-02-14T01:35:37;13.01;86.06
75380;HTU21D;65641;44.714;37.756;2024-02-14T01:36:41;13.00;86.02
75380;HTU21D;65641;44.714;37.756;2024-02-14T01:37:44;12.99;86.16
75380;HTU21D;65641;44.714;37.756;2024-02-14T01:38:48;12.97;86.09
75380;HTU21D;65641;44.714;37.756;2024-02-14T01:39:51;12.97;86.12
75380;HTU21D;65641;44.714;37.756;2024-02-14T01:40:55;12.96;86.18
75380;HTU21D;65641;44.714;37.756;2024-02-14T01:41:58;12.96;86.19
75380;HTU21D;65641;44.714;37.756;2024-02-14T01:43:01;12.96;86.29
75380;HTU21D;65641;44.714;37.756;2024-02-14T01:44:05;12.95;86.24
75380;HTU21D;65641;44.714;37.756;2024-02-14T01:45:09;12.96;86.19
75380;HTU21D;65641;44.714;37.756;2024-02-14T01:46:30;12.96;86.09
75380;HTU21D;65641;44.714;37.756;2024-02-14T01:47:34;12.96;86.11
75380;HTU21D;65641;44.714;37.756;2024-02-14T01:48:39;12.96;86.12
75380;HTU21D;65641;44.714;37.756;2024-02-14T01:49:43;12.97;86.07
75380;HTU21D;65641;44.714;37.756;2024-02-14T01:50:47;12.96;86.11
75380;HTU21D;65641;44.714;37.756;2024-02-14T01:51:50;12.96;85.99
75380;HTU21D;65641;44.714;37.756;2024-02-14T01:52:58;12.96;86.11
75380;HTU21D;65641;44.714;37.756;2024-02-14T01:54:04;12.96;86.04
75380;HTU21D;65641;44.714;37.756;2024-02-14T01:55:11;12.96;86.04
75380;HTU21D;65641;44.714;37.756;2024-02-14T01:56:15;12.97;86.02
75380;HTU21D;65641;44.714;37.756;2024-02-14T01:57:19;12.97;85.99
75380;HTU21D;65641;44.714;37.756;2024-02-14T01:58:23;12.99;86.09
75380;HTU21D;65641;44.714;37.756;2024-02-14T01:59:27;12.97;85.96
75380;HTU21D;65641;44.714;37.756;2024-02-14T02:00:31;13.01;86.02
75380;HTU21D;65641;44.714;37.756;2024-02-14T02:01:40;13.00;86.03
75380;HTU21D;65641;44.714;37.756;2024-02-14T02:02:43;13.02;85.99
75380;HTU21D;65641;44.714;37.756;2024-02-14T02:03:53;13.04;86.00
75380;HTU21D;65641;44.714;37.756;2024-02-14T02:04:57;13.04;86.01
75380;HTU21D;65641;44.714;37.756;2024-02-14T02:06:00;13.05;86.07
75380;HTU21D;65641;44.714;37.756;2024-02-14T02:07:04;13.04;86.06
75380;HTU21D;65641;44.714;37.756;2024-02-14T02:08:08;13.06;86.09
75380;HTU21D;65641;44.714;37.756;2024-02-14T02:09:12;13.07;86.09
75380;HTU21D;65641;44.714;37.756;2024-02-14T02:10:16;13.08;86.16
75380;HTU21D;65641;44.714;37.756;2024-02-14T02:11:48;13.09;86.07
75380;HTU21D;65641;44.714;37.756;2024-02-14T02:13:12;13.11;86.09
75380;HTU21D;65641;44.714;37.756;2024-02-14T02:14:35;13.14;86.09
75380;HTU21D;65641;44.714;37.756;2024-02-14T02:15:58;13.15;86.14
75380;HTU21D;65641;44.714;37.756;2024-02-14T02:17:22;13.17;86.02
75380;HTU21D;65641;44.714;37.756;2024-02-14T02:18:45;13.19;86.00
75380;HTU21D;65641;44.714;37.756;2024-02-14T02:20:09;13.19;85.87
75380;HTU21D;65641;44.714;37.756;2024-02-14T02:21:13;13.22;85.93
75380;HTU21D;65641;44.714;37.756;2024-02-14T02:22:20;13.23;85.81
75380;HTU21D;65641;44.714;37.756;2024-02-14T02:23:43;13.25;85.85
75380;HTU21D;65641;44.714;37.756;2024-02-14T02:24:48;13.27;85.87
75380;HTU21D;65641;44.714;37.756;2024-02-14T02:25:53;13.27;85.71
75380;HTU21D;65641;44.714;37.756;2024-02-14T02:27:17;13.30;85.55
75380;HTU21D;65641;44.714;37.756;2024-02-14T02:28:40;13.33;85.77
75380;HTU21D;65641;44.714;37.756;2024-02-14T02:29:45;13.32;85.68
75380;HTU21D;65641;44.714;37.756;2024-02-14T02:30:49;13.34;85.66
75380;HTU21D;65641;44.714;37.756;2024-02-14T02:31:52;13.35;85.73
75380;HTU21D;65641;44.714;37.756;2024-02-14T02:32:55;13.37;85.62
75380;HTU21D;65641;44.714;37.756;2024-02-14T02:33:59;13.37;85.43
75380;HTU21D;65641;44.714;37.756;2024-02-14T02:35:03;13.39;85.64
75380;HTU21D;65641;44.714;37.756;2024-02-14T02:36:27;13.40;85.44
75380;HTU21D;65641;44.714;37.756;2024-02-14T02:37:53;13.43;85.43
75380;HTU21D;65641;44.714;37.756;2024-02-14T02:39:16;13.44;85.64
75380;HTU21D;65641;44.714;37.756;2024-02-14T02:40:40;13.44;85.61
75380;HTU21D;65641;44.714;37.756;2024-02-14T02:42:03;13.46;85.35
75380;HTU21D;65641;44.714;37.756;2024-02-14T02:43:34;13.47;85.56
75380;HTU21D;65641;44.714;37.756;2024-02-14T02:44:59;13.48;85.56
75380;HTU21D;65641;44.714;37.756;2024-02-14T02:46:23;13.48;85.48
75380;HTU21D;65641;44.714;37.756;2024-02-14T02:47:46;13.51;85.50
75380;HTU21D;65641;44.714;37.756;2024-02-14T02:49:11;13.52;85.39
75380;HTU21D;65641;44.714;37.756;2024-02-14T02:50:21;13.53;85.45
75380;HTU21D;65641;44.714;37.756;2024-02-14T02:51:44;13.54;85.45
75380;HTU21D;65641;44.714;37.756;2024-02-14T02:53:17;13.58;85.37
75380;HTU21D;65641;44.714;37.756;2024-02-14T02:54:44;13.59;85.39
75380;HTU21D;65641;44.714;37.756;2024-02-14T02:56:07;13.60;85.25
75380;HTU21D;65641;44.714;37.756;2024-02-14T02:57:11;13.60;85.32
75380;HTU21D;65641;44.714;37.756;2024-02-14T02:58:15;13.62;85.30
75380;HTU21D;65641;44.714;37.756;2024-02-14T02:59:22;13.63;85.20
75380;HTU21D;65641;44.714;37.756;2024-02-14T03:00:25;13.65;85.06
75380;HTU21D;65641;44.714;37.756;2024-02-14T03:01:43;13.66;85.17
75380;HTU21D;65641;44.714;37.756;2024-02-14T03:03:08;13.68;85.11
75380;HTU21D;65641;44.714;37.756;2024-02-14T03:04:28;13.68;85.21
75380;HTU21D;65641;44.714;37.756;2024-02-14T03:06:13;13.71;85.07
75380;HTU21D;65641;44.714;37.756;2024-02-14T03:07:36;13.73;85.16
75380;HTU21D;65641;44.714;37.756;2024-02-14T03:09:00;13.74;85.17
75380;HTU21D;65641;44.714;37.756;2024-02-14T03:10:24;13.76;85.03
75380;HTU21D;65641;44.714;37.756;2024-02-14T03:11:48;13.78;84.97
75380;HTU21D;65641;44.714;37.756;2024-02-14T03:13:11;13.79;84.93
75380;HTU21D;65641;44.714;37.756;2024-02-14T03:14:35;13.80;84.94
75380;HTU21D;65641;44.714;37.756;2024-02-14T03:15:59;13.81;84.82
75380;HTU21D;65641;44.714;37.756;2024-02-14T03:17:03;13.84;84.88
75380;HTU21D;65641;44.714;37.756;2024-02-14T03:18:07;13.85;84.81
75380;HTU21D;65641;44.714;37.756;2024-02-14T03:19:14;13.86;85.08
75380;HTU21D;65641;44.714;37.756;2024-02-14T03:20:18;13.86;85.01
75380;HTU21D;65641;44.714;37.756;2024-02-14T03:21:23;13.86;85.02
75380;HTU21D;65641;44.714;37.756;2024-02-14T03:22:26;13.88;84.71
75380;HTU21D;65641;44.714;37.756;2024-02-14T03:23:29;13.90;84.90
75380;HTU21D;65641;44.714;37.756;2024-02-14T03:24:33;13.90;84.86
75380;HTU21D;65641;44.714;37.756;2024-02-14T03:25:38;13.91;84.98
75380;HTU21D;65641;44.714;37.756;2024-02-14T03:26:42;13.92;84.79
75380;HTU21D;65641;44.714;37.756;2024-02-14T03:27:48;13.94;84.86
75380;HTU21D;65641;44.714;37.756;2024-02-14T03:28:56;13.95;84.92
75380;HTU21D;65641;44.714;37.756;2024-02-14T03:29:59;13.96;84.95
75380;HTU21D;65641;44.714;37.756;2024-02-14T03:31:06;13.97;84.92
75380;HTU21D;65641;44.714;37.756;2024-02-14T03:32:09;13.97;84.73
75380;HTU21D;65641;44.714;37.756;2024-02-14T03:33:13;13.98;84.89
75380;HTU21D;65641;44.714;37.756;2024-02-14T03:34:17;14.00;84.90
75380;HTU21D;65641;44.714;37.756;2024-02-14T03:35:22;14.00;84.90
75380;HTU21D;65641;44.714;37.756;2024-02-14T03:36:27;14.01;84.84
75380;HTU21D;65641;44.714;37.756;2024-02-14T03:37:36;14.01;84.84
75380;HTU21D;65641;44.714;37.756;2024-02-14T03:38:40;14.03;84.84
75380;HTU21D;65641;44.714;37.756;2024-02-14T03:39:44;14.04;84.88
75380;HTU21D;65641;44.714;37.756;2024-02-14T03:40:49;14.04;84.91
75380;HTU21D;65641;44.714;37.756;2024-02-14T03:41:53;14.06;84.81
75380;HTU21D;65641;44.714;37.756;2024-02-14T03:42:57;14.06;84.74
75380;HTU21D;65641;44.714;37.756;2024-02-14T03:44:01;14.08;84.76
75380;HTU21D;65641;44.714;37.756;2024-02-14T03:45:09;14.08;84.83
75380;HTU21D;65641;44.714;37.756;2024-02-14T03:46:16;14.09;84.71
75380;HTU21D;65641;44.714;37.756;2024-02-14T03:47:19;14.10;84.72
75380;HTU21D;65641;44.714;37.756;2024-02-14T03:48:23;14.12;84.65
75380;HTU21D;65641;44.714;37.756;2024-02-14T03:49:26;14.12;84.55
75380;HTU21D;65641;44.714;37.756;2024-02-14T03:50:30;14.12;84.70
75380;HTU21D;65641;44.714;37.756;2024-02-14T03:51:34;14.13;84.71
75380;HTU21D;65641;44.714;37.756;2024-02-14T03:52:37;14.15;84.71
75380;HTU21D;65641;44.714;37.756;2024-02-14T03:53:41;14.17;84.75
75380;HTU21D;65641;44.714;37.756;2024-02-14T03:54:48;14.18;84.57
75380;HTU21D;65641;44.714;37.756;2024-02-14T03:55:51;14.17;84.64
75380;HTU21D;65641;44.714;37.756;2024-02-14T03:56:57;14.19;84.59
75380;HTU21D;65641;44.714;37.756;2024-02-14T03:58:00;14.19;84.48
75380;HTU21D;65641;44.714;37.756;2024-02-14T03:59:04;14.21;84.42
75380;HTU21D;65641;44.714;37.756;2024-02-14T04:00:09;14.22;84.54
75380;HTU21D;65641;44.714;37.756;2024-02-14T04:01:17;14.24;84.38
75380;HTU21D;65641;44.714;37.756;2024-02-14T04:02:20;14.24;84.43
75380;HTU21D;65641;44.714;37.756;2024-02-14T04:03:24;14.25;84.45
75380;HTU21D;65641;44.714;37.756;2024-02-14T04:04:27;14.26;84.36
75380;HTU21D;65641;44.714;37.756;2024-02-14T04:05:31;14.27;84.33
75380;HTU21D;65641;44.714;37.756;2024-02-14T04:06:35;14.28;84.44
75380;HTU21D;65641;44.714;37.756;2024-02-14T04:07:38;14.30;84.28
75380;HTU21D;65641;44.714;37.756;2024-02-14T04:08:42;14.29;84.44
75380;HTU21D;65641;44.714;37.756;2024-02-14T04:09:46;14.28;84.30
75380;HTU21D;65641;44.714;37.756;2024-02-14T04:10:49;14.32;84.26
75380;HTU21D;65641;44.714;37.756;2024-02-14T04:11:53;14.33;84.23
75380;HTU21D;65641;44.714;37.756;2024-02-14T04:12:57;14.35;84.26
75380;HTU21D;65641;44.714;37.756;2024-02-14T04:14:01;14.35;84.18
75380;HTU21D;65641;44.714;37.756;2024-02-14T04:15:05;14.35;84.23
75380;HTU21D;65641;44.714;37.756;2024-02-14T04:16:23;14.37;84.18
75380;HTU21D;65641;44.714;37.756;2024-02-14T04:17:29;14.37;84.18
75380;HTU21D;65641;44.714;37.756;2024-02-14T04:18:33;14.39;84.28
75380;HTU21D;65641;44.714;37.756;2024-02-14T04:19:37;14.38;84.19
75380;HTU21D;65641;44.714;37.756;2024-02-14T04:20:40;14.39;84.14
75380;HTU21D;65641;44.714;37.756;2024-02-14T04:21:45;14.41;84.19
75380;HTU21D;65641;44.714;37.756;2024-02-14T04:22:49;14.41;84.19
75380;HTU21D;65641;44.714;37.756;2024-02-14T04:23:52;14.42;84.10
75380;HTU21D;65641;44.714;37.756;2024-02-14T04:24:56;14.43;84.16
75380;HTU21D;65641;44.714;37.756;2024-02-14T04:25:59;14.43;84.19
75380;HTU21D;65641;44.714;37.756;2024-02-14T04:27:03;14.43;84.19
75380;HTU21D;65641;44.714;37.756;2024-02-14T04:28:07;14.45;84.14
75380;HTU21D;65641;44.714;37.756;2024-02-14T04:29:11;14.45;84.08
75380;HTU21D;65641;44.714;37.756;2024-02-14T04:30:14;14.48;84.08
75380;HTU21D;65641;44.714;37.756;2024-02-14T04:31:38;14.49;84.04
75380;HTU21D;65641;44.714;37.756;2024-02-14T04:32:43;14.49;84.12
75380;HTU21D;65641;44.714;37.756;2024-02-14T04:33:47;14.49;84.07
75380;HTU21D;65641;44.714;37.756;2024-02-14T04:34:55;14.50;84.08
75380;HTU21D;65641;44.714;37.756;2024-02-14T04:36:00;14.51;84.07
75380;HTU21D;65641;44.714;37.756;2024-02-14T04:37:03;14.51;83.95
75380;HTU21D;65641;44.714;37.756;2024-02-14T04:38:13;14.53;83.98
75380;HTU21D;65641;44.714;37.756;2024-02-14T04:39:17;14.53;84.01
75380;HTU21D;65641;44.714;37.756;2024-02-14T04:40:20;14.53;84.07
75380;HTU21D;65641;44.714;37.756;2024-02-14T04:41:23;14.54;84.10
75380;HTU21D;65641;44.714;37.756;2024-02-14T04:42:27;14.55;84.01
75380;HTU21D;65641;44.714;37.756;2024-02-14T04:43:30;14.56;84.07
75380;HTU21D;65641;44.714;37.756;2024-02-14T04:44:34;14.56;84.00
75380;HTU21D;65641;44.714;37.756;2024-02-14T04:45:37;14.56;84.02
75380;HTU21D;65641;44.714;37.756;2024-02-14T04:46:50;14.57;84.02
75380;HTU21D;65641;44.714;37.756;2024-02-14T04:47:54;14.57;84.10
75380;HTU21D;65641;44.714;37.756;2024-02-14T04:48:57;14.59;83.96
75380;HTU21D;65641;44.714;37.756;2024-02-14T04:50:01;14.60;84.05
75380;HTU21D;65641;44.714;37.756;2024-02-14T04:51:07;14.62;83.93
75380;HTU21D;65641;44.714;37.756;2024-02-14T04:52:10;14.62;83.97
75380;HTU21D;65641;44.714;37.756;2024-02-14T04:53:14;14.63;84.09
75380;HTU21D;65641;44.714;37.756;2024-02-14T04:54:19;14.64;84.13
75380;HTU21D;65641;44.714;37.756;2024-02-14T04:55:23;14.66;83.99
75380;HTU21D;65641;44.714;37.756;2024-02-14T04:56:27;14.66;84.03
75380;HTU21D;65641;44.714;37.756;2024-02-14T04:57:31;14.68;84.02
75380;HTU21D;65641;44.714;37.756;2024-02-14T04:58:35;14.69;83.91
75380;HTU21D;65641;44.714;37.756;2024-02-14T04:59:39;14.69;83.97
75380;HTU21D;65641;44.714;37.756;2024-02-14T05:00:42;14.70;83.96
75380;HTU21D;65641;44.714;37.756;2024-02-14T05:01:46;14.72;83.88
75380;HTU21D;65641;44.714;37.756;2024-02-14T05:02:49;14.72;83.95
75380;HTU21D;65641;44.714;37.756;2024-02-14T05:03:54;14.73;83.98
75380;HTU21D;65641;44.714;37.756;2024-02-14T05:04:57;14.74;83.97
75380;HTU21D;65641;44.714;37.756;2024-02-14T05:06:01;14.74;83.90
75380;HTU21D;65641;44.714;37.756;2024-02-14T05:07:06;14.75;83.83
75380;HTU21D;65641;44.714;37.756;2024-02-14T05:08:10;14.75;83.90
75380;HTU21D;65641;44.714;37.756;2024-02-14T05:09:14;14.77;83.90
75380;HTU21D;65641;44.714;37.756;2024-02-14T05:10:18;14.77;83.92
75380;HTU21D;65641;44.714;37.756;2024-02-14T05:11:22;14.78;83.77
75380;HTU21D;65641;44.714;37.756;2024-02-14T05:12:25;14.80;83.87
75380;HTU21D;65641;44.714;37.756;2024-02-14T05:13:28;14.80;83.78
75380;HTU21D;65641;44.714;37.756;2024-02-14T05:14:32;14.81;83.82
75380;HTU21D;65641;44.714;37.756;2024-02-14T05:15:35;14.81;83.73
75380;HTU21D;65641;44.714;37.756;2024-02-14T05:16:39;14.82;83.81
75380;HTU21D;65641;44.714;37.756;2024-02-14T05:17:42;14.83;83.68
75380;HTU21D;65641;44.714;37.756;2024-02-14T05:18:47;14.84;83.75
75380;HTU21D;65641;44.714;37.756;2024-02-14T05:19:52;14.85;83.70
75380;HTU21D;65641;44.714;37.756;2024-02-14T05:20:56;14.86;83.78
75380;HTU21D;65641;44.714;37.756;2024-02-14T05:22:01;14.89;83.81
75380;HTU21D;65641;44.714;37.756;2024-02-14T05:23:05;14.93;83.73
75380;HTU21D;65641;44.714;37.756;2024-02-14T05:24:08;14.95;83.61
75380;HTU21D;65641;44.714;37.756;2024-02-14T05:25:12;14.99;83.57
75380;HTU21D;65641;44.714;37.756;2024-02-14T05:26:27;15.00;83.43
75380;HTU21D;65641;44.714;37.756;2024-02-14T05:27:31;15.04;83.49
75380;HTU21D;65641;44.714;37.756;2024-02-14T05:28:34;15.08;83.45
75380;HTU21D;65641;44.714;37.756;2024-02-14T05:29:37;15.11;83.27
75380;HTU21D;65641;44.714;37.756;2024-02-14T05:30:42;15.13;83.13
75380;HTU21D;65641;44.714;37.756;2024-02-14T05:32:05;15.18;82.93
75380;HTU21D;65641;44.714;37.756;2024-02-14T05:33:09;15.19;82.97
75380;HTU21D;65641;44.714;37.756;2024-02-14T05:34:12;15.24;82.75
75380;HTU21D;65641;44.714;37.756;2024-02-14T05:35:16;15.25;82.76
75380;HTU21D;65641;44.714;37.756;2024-02-14T05:36:20;15.28;82.65
75380;HTU21D;65641;44.714;37.756;2024-02-14T05:37:23;15.30;82.59
75380;HTU21D;65641;44.714;37.756;2024-02-14T05:38:27;15.32;82.58
75380;HTU21D;65641;44.714;37.756;2024-02-14T05:39:30;15.36;82.31
75380;HTU21D;65641;44.714;37.756;2024-02-14T05:40:34;15.39;82.36
75380;HTU21D;65641;44.714;37.756;2024-02-14T05:41:41;15.41;82.17
75380;HTU21D;65641;44.714;37.756;2024-02-14T05:42:45;15.43;82.06
75380;HTU21D;65641;44.714;37.756;2024-02-14T05:43:49;15.45;82.05
75380;HTU21D;65641;44.714;37.756;2024-02-14T05:44:52;15.48;82.08
75380;HTU21D;65641;44.714;37.756;2024-02-14T05:45:56;15.48;82.01
75380;HTU21D;65641;44.714;37.756;2024-02-14T05:46:59;15.52;81.89
75380;HTU21D;65641;44.714;37.756;2024-02-14T05:48:03;15.53;81.80
75380;HTU21D;65641;44.714;37.756;2024-02-14T05:49:07;15.54;81.91
75380;HTU21D;65641;44.714;37.756;2024-02-14T05:50:11;15.55;81.78
75380;HTU21D;65641;44.714;37.756;2024-02-14T05:51:16;15.56;81.91
75380;HTU21D;65641;44.714;37.756;2024-02-14T05:52:19;15.57;81.90
75380;HTU21D;65641;44.714;37.756;2024-02-14T05:53:23;15.58;81.85
75380;HTU21D;65641;44.714;37.756;2024-02-14T05:54:26;15.57;81.86
75380;HTU21D;65641;44.714;37.756;2024-02-14T05:55:29;15.58;82.00
75380;HTU21D;65641;44.714;37.756;2024-02-14T05:56:33;15.58;82.01
75380;HTU21D;65641;44.714;37.756;2024-02-14T05:57:37;15.59;81.97
75380;HTU21D;65641;44.714;37.756;2024-02-14T05:58:40;15.58;82.05
75380;HTU21D;65641;44.714;37.756;2024-02-14T05:59:44;15.59;82.06
75380;HTU21D;65641;44.714;37.756;2024-02-14T06:00:47;15.59;82.07
75380;HTU21D;65641;44.714;37.756;2024-02-14T06:01:51;15.60;82.04
75380;HTU21D;65641;44.714;37.756;2024-02-14T06:02:54;15.61;82.06
75380;HTU21D;65641;44.714;37.756;2024-02-14T06:03:58;15.63;82.07
75380;HTU21D;65641;44.714;37.756;2024-02-14T06:05:01;15.66;82.03
75380;HTU21D;65641;44.714;37.756;2024-02-14T06:06:07;15.67;81.93
75380;HTU21D;65641;44.714;37.756;2024-02-14T06:07:12;15.71;81.88
75380;HTU21D;65641;44.714;37.756;2024-02-14T06:08:15;15.73;81.69
75380;HTU21D;65641;44.714;37.756;2024-02-14T06:09:18;15.76;81.59
75380;HTU21D;65641;44.714;37.756;2024-02-14T06:10:22;15.80;81.50
75380;HTU21D;65641;44.714;37.756;2024-02-14T06:11:25;15.84;81.33
75380;HTU21D;65641;44.714;37.756;2024-02-14T06:12:29;15.88;81.19
75380;HTU21D;65641;44.714;37.756;2024-02-14T06:13:35;15.91;81.19
75380;HTU21D;65641;44.714;37.756;2024-02-14T06:14:39;15.96;81.01
75380;HTU21D;65641;44.714;37.756;2024-02-14T06:15:44;15.99;80.82
75380;HTU21D;65641;44.714;37.756;2024-02-14T06:16:48;16.02;80.69
75380;HTU21D;65641;44.714;37.756;2024-02-14T06:17:52;16.04;80.74
75380;HTU21D;65641;44.714;37.756;2024-02-14T06:18:55;16.07;80.57
75380;HTU21D;65641;44.714;37.756;2024-02-14T06:19:59;16.10;80.47
75380;HTU21D;65641;44.714;37.756;2024-02-14T06:21:06;16.12;80.48
75380;HTU21D;65641;44.714;37.756;2024-02-14T06:22:11;16.12;80.49
75380;HTU21D;65641;44.714;37.756;2024-02-14T06:23:14;16.14;80.32
75380;HTU21D;65641;44.714;37.756;2024-02-14T06:24:18;16.14;80.30
75380;HTU21D;65641;44.714;37.756;2024-02-14T06:25:22;16.14;80.27
75380;HTU21D;65641;44.714;37.756;2024-02-14T06:26:33;16.15;80.26
75380;HTU21D;65641;44.714;37.756;2024-02-14T06:27:36;16.14;80.41
75380;HTU21D;65641;44.714;37.756;2024-02-14T06:28:40;16.13;80.20
75380;HTU21D;65641;44.714;37.756;2024-02-14T06:29:44;16.12;80.19
75380;HTU21D;65641;44.714;37.756;2024-02-14T06:30:47;16.11;80.40
75380;HTU21D;65641;44.714;37.756;2024-02-14T06:31:51;16.10;80.42
75380;HTU21D;65641;44.714;37.756;2024-02-14T06:32:54;16.08;80.30
75380;HTU21D;65641;44.714;37.756;2024-02-14T06:33:59;16.06;80.42
75380;HTU21D;65641;44.714;37.756;2024-02-14T06:35:04;16.05;80.33
75380;HTU21D;65641;44.714;37.756;2024-02-14T06:36:08;16.05;80.18
75380;HTU21D;65641;44.714;37.756;2024-02-14T06:37:11;16.04;80.27
75380;HTU21D;65641;44.714;37.756;2024-02-14T06:38:15;16.06;80.43
75380;HTU21D;65641;44.714;37.756;2024-02-14T06:39:18;16.05;80.17
75380;HTU21D;65641;44.714;37.756;2024-02-14T06:40:23;16.08;80.35
75380;HTU21D;65641;44.714;37.756;2024-02-14T06:41:27;16.10;80.36
75380;HTU21D;65641;44.714;37.756;2024-02-14T06:42:33;16.11;80.49
75380;HTU21D;65641;44.714;37.756;2024-02-14T06:43:36;16.15;80.04
75380;HTU21D;65641;44.714;37.756;2024-02-14T06:44:42;16.15;80.29
75380;HTU21D;65641;44.714;37.756;2024-02-14T06:45:46;16.16;80.14
75380;HTU21D;65641;44.714;37.756;2024-02-14T06:47:09;16.19;79.96
75380;HTU21D;65641;44.714;37.756;2024-02-14T06:48:12;16.21;80.04